sensor_id;sensor_type;location;lat;lon;timestamp;P1;durP1;ratioP1;P2;durP2;ratioP2
17482;SDS011;8858;52.308;20.994;2022-09-30T00:00:23;45.27;;;34.80;;
17482;SDS011;8858;52.308;20.994;2022-09-30T00:02:52;46.87;;;36.27;;
17482;SDS011;8858;52.308;20.994;2022-09-30T00:09:41;51.13;;;39.17;;
17482;SDS011;8858;52.308;20.994;2022-09-30T00:12:13;56.87;;;38.93;;
17482;SDS011;8858;52.308;20.994;2022-09-30T00:14:44;56.17;;;39.80;;
17482;SDS011;8858;52.308;20.994;2022-09-30T00:18:01;57.03;;;39.17;;
17482;SDS011;8858;52.308;20.994;2022-09-30T00:20:54;61.37;;;40.77;;
17482;SDS011;8858;52.308;20.994;2022-09-30T00:23:23;58.23;;;40.57;;
17482;SDS011;8858;52.308;20.994;2022-09-30T00:25:56;54.43;;;40.87;;
17482;SDS011;8858;52.308;20.994;2022-09-30T00:28:50;55.00;;;39.47;;
17482;SDS011;8858;52.308;20.994;2022-09-30T00:31:47;53.33;;;39.57;;
17482;SDS011;8858;52.308;20.994;2022-09-30T00:34:18;55.80;;;40.20;;
17482;SDS011;8858;52.308;20.994;2022-09-30T00:36:51;55.40;;;40.63;;
17482;SDS011;8858;52.308;20.994;2022-09-30T00:39:22;57.00;;;41.37;;
17482;SDS011;8858;52.308;20.994;2022-09-30T00:42:20;52.00;;;39.97;;
17482;SDS011;8858;52.308;20.994;2022-09-30T00:44:53;56.10;;;40.90;;
17482;SDS011;8858;52.308;20.994;2022-09-30T00:47:41;54.93;;;40.07;;
17482;SDS011;8858;52.308;20.994;2022-09-30T00:50:26;54.10;;;39.63;;
17482;SDS011;8858;52.308;20.994;2022-09-30T00:53:28;52.60;;;40.20;;
17482;SDS011;8858;52.308;20.994;2022-09-30T00:56:03;56.23;;;39.77;;
17482;SDS011;8858;52.308;20.994;2022-09-30T00:58:39;56.10;;;40.73;;
17482;SDS011;8858;52.308;20.994;2022-09-30T01:01:17;53.50;;;41.17;;
17482;SDS011;8858;52.308;20.994;2022-09-30T01:04:19;56.83;;;40.63;;
17482;SDS011;8858;52.308;20.994;2022-09-30T01:08:03;53.33;;;39.57;;
17482;SDS011;8858;52.308;20.994;2022-09-30T01:13:56;58.33;;;39.27;;
17482;SDS011;8858;52.308;20.994;2022-09-30T01:17:23;49.30;;;38.07;;
17482;SDS011;8858;52.308;20.994;2022-09-30T01:30:58;54.67;;;37.97;;
17482;SDS011;8858;52.308;20.994;2022-09-30T01:34:26;50.47;;;37.20;;
17482;SDS011;8858;52.308;20.994;2022-09-30T01:38:17;52.20;;;36.00;;
17482;SDS011;8858;52.308;20.994;2022-09-30T01:45:17;48.97;;;37.23;;
17482;SDS011;8858;52.308;20.994;2022-09-30T01:51:00;46.93;;;36.07;;
17482;SDS011;8858;52.308;20.994;2022-09-30T01:54:02;49.70;;;35.73;;
17482;SDS011;8858;52.308;20.994;2022-09-30T01:56:34;47.60;;;35.93;;
17482;SDS011;8858;52.308;20.994;2022-09-30T01:59:12;47.63;;;36.17;;
17482;SDS011;8858;52.308;20.994;2022-09-30T02:01:45;43.17;;;35.47;;
17482;SDS011;8858;52.308;20.994;2022-09-30T02:07:59;46.70;;;35.80;;
17482;SDS011;8858;52.308;20.994;2022-09-30T02:10:31;49.40;;;34.80;;
17482;SDS011;8858;52.308;20.994;2022-09-30T02:13:06;44.17;;;34.87;;
17482;SDS011;8858;52.308;20.994;2022-09-30T02:15:53;43.00;;;33.90;;
17482;SDS011;8858;52.308;20.994;2022-09-30T02:18:25;43.53;;;33.47;;
17482;SDS011;8858;52.308;20.994;2022-09-30T02:20:59;41.83;;;33.83;;
17482;SDS011;8858;52.308;20.994;2022-09-30T02:23:32;47.33;;;35.33;;
17482;SDS011;8858;52.308;20.994;2022-09-30T02:26:04;46.00;;;34.30;;
17482;SDS011;8858;52.308;20.994;2022-09-30T02:28:44;43.90;;;32.37;;
17482;SDS011;8858;52.308;20.994;2022-09-30T02:31:19;44.83;;;32.93;;
17482;SDS011;8858;52.308;20.994;2022-09-30T02:33:55;41.57;;;32.20;;
17482;SDS011;8858;52.308;20.994;2022-09-30T02:36:37;47.53;;;32.57;;
17482;SDS011;8858;52.308;20.994;2022-09-30T02:39:22;42.73;;;32.53;;
17482;SDS011;8858;52.308;20.994;2022-09-30T02:42:03;43.60;;;31.43;;
17482;SDS011;8858;52.308;20.994;2022-09-30T02:44:50;47.37;;;32.63;;
17482;SDS011;8858;52.308;20.994;2022-09-30T02:47:24;46.67;;;32.83;;
17482;SDS011;8858;52.308;20.994;2022-09-30T02:50:01;45.53;;;31.50;;
17482;SDS011;8858;52.308;20.994;2022-09-30T02:52:39;43.63;;;31.20;;
17482;SDS011;8858;52.308;20.994;2022-09-30T02:58:53;42.83;;;31.20;;
17482;SDS011;8858;52.308;20.994;2022-09-30T03:01:25;46.43;;;32.10;;
17482;SDS011;8858;52.308;20.994;2022-09-30T03:03:55;42.60;;;32.03;;
17482;SDS011;8858;52.308;20.994;2022-09-30T03:06:31;44.90;;;33.20;;
17482;SDS011;8858;52.308;20.994;2022-09-30T03:09:03;43.63;;;30.33;;
17482;SDS011;8858;52.308;20.994;2022-09-30T03:11:35;41.30;;;30.07;;
17482;SDS011;8858;52.308;20.994;2022-09-30T03:14:12;41.23;;;30.67;;
17482;SDS011;8858;52.308;20.994;2022-09-30T03:16:58;41.17;;;30.63;;
17482;SDS011;8858;52.308;20.994;2022-09-30T03:20:06;43.50;;;30.53;;
17482;SDS011;8858;52.308;20.994;2022-09-30T03:24:20;43.47;;;31.20;;
17482;SDS011;8858;52.308;20.994;2022-09-30T03:26:57;39.70;;;31.07;;
17482;SDS011;8858;52.308;20.994;2022-09-30T03:29:35;35.57;;;28.23;;
17482;SDS011;8858;52.308;20.994;2022-09-30T03:32:14;40.70;;;30.53;;
17482;SDS011;8858;52.308;20.994;2022-09-30T03:35:02;42.47;;;30.53;;
17482;SDS011;8858;52.308;20.994;2022-09-30T03:37:40;39.57;;;31.10;;
17482;SDS011;8858;52.308;20.994;2022-09-30T03:40:19;43.10;;;31.60;;
17482;SDS011;8858;52.308;20.994;2022-09-30T03:42:55;45.20;;;32.80;;
17482;SDS011;8858;52.308;20.994;2022-09-30T03:45:34;45.07;;;33.83;;
17482;SDS011;8858;52.308;20.994;2022-09-30T03:48:35;47.57;;;33.37;;
17482;SDS011;8858;52.308;20.994;2022-09-30T03:51:13;42.37;;;32.53;;
17482;SDS011;8858;52.308;20.994;2022-09-30T03:53:43;42.23;;;33.00;;
17482;SDS011;8858;52.308;20.994;2022-09-30T03:56:14;47.63;;;32.97;;
17482;SDS011;8858;52.308;20.994;2022-09-30T03:58:42;44.60;;;32.20;;
17482;SDS011;8858;52.308;20.994;2022-09-30T04:01:15;46.43;;;32.73;;
17482;SDS011;8858;52.308;20.994;2022-09-30T04:03:46;42.50;;;31.70;;
17482;SDS011;8858;52.308;20.994;2022-09-30T04:06:21;37.87;;;30.90;;
17482;SDS011;8858;52.308;20.994;2022-09-30T04:08:54;40.23;;;30.73;;
17482;SDS011;8858;52.308;20.994;2022-09-30T04:11:24;42.03;;;30.73;;
17482;SDS011;8858;52.308;20.994;2022-09-30T04:13:55;42.33;;;32.83;;
17482;SDS011;8858;52.308;20.994;2022-09-30T04:16:24;41.37;;;31.50;;
17482;SDS011;8858;52.308;20.994;2022-09-30T04:18:52;42.87;;;32.43;;
17482;SDS011;8858;52.308;20.994;2022-09-30T04:21:23;43.70;;;31.60;;
17482;SDS011;8858;52.308;20.994;2022-09-30T04:23:54;39.13;;;30.13;;
17482;SDS011;8858;52.308;20.994;2022-09-30T04:26:24;41.80;;;30.20;;
17482;SDS011;8858;52.308;20.994;2022-09-30T04:28:52;40.43;;;29.17;;
17482;SDS011;8858;52.308;20.994;2022-09-30T04:31:24;40.23;;;31.20;;
17482;SDS011;8858;52.308;20.994;2022-09-30T04:33:52;39.93;;;29.93;;
17482;SDS011;8858;52.308;20.994;2022-09-30T04:36:23;46.23;;;31.90;;
17482;SDS011;8858;52.308;20.994;2022-09-30T04:38:52;42.77;;;29.80;;
17482;SDS011;8858;52.308;20.994;2022-09-30T04:41:20;37.43;;;29.90;;
17482;SDS011;8858;52.308;20.994;2022-09-30T04:43:49;41.40;;;30.27;;
17482;SDS011;8858;52.308;20.994;2022-09-30T04:46:19;40.07;;;29.73;;
17482;SDS011;8858;52.308;20.994;2022-09-30T04:49:00;38.57;;;29.87;;
17482;SDS011;8858;52.308;20.994;2022-09-30T04:51:34;41.57;;;29.97;;
17482;SDS011;8858;52.308;20.994;2022-09-30T04:54:03;46.37;;;31.27;;
17482;SDS011;8858;52.308;20.994;2022-09-30T04:56:34;45.10;;;31.13;;
17482;SDS011;8858;52.308;20.994;2022-09-30T04:59:04;39.63;;;29.57;;
17482;SDS011;8858;52.308;20.994;2022-09-30T05:01:35;41.73;;;31.17;;
17482;SDS011;8858;52.308;20.994;2022-09-30T05:04:04;40.03;;;29.67;;
17482;SDS011;8858;52.308;20.994;2022-09-30T05:06:34;36.37;;;29.57;;
17482;SDS011;8858;52.308;20.994;2022-09-30T05:09:02;40.30;;;28.43;;
17482;SDS011;8858;52.308;20.994;2022-09-30T05:11:31;38.80;;;28.03;;
17482;SDS011;8858;52.308;20.994;2022-09-30T05:14:06;38.93;;;29.37;;
17482;SDS011;8858;52.308;20.994;2022-09-30T05:16:36;46.60;;;33.13;;
17482;SDS011;8858;52.308;20.994;2022-09-30T05:19:05;41.80;;;29.43;;
17482;SDS011;8858;52.308;20.994;2022-09-30T05:21:34;42.93;;;29.70;;
17482;SDS011;8858;52.308;20.994;2022-09-30T05:24:02;38.30;;;28.23;;
17482;SDS011;8858;52.308;20.994;2022-09-30T05:26:31;36.87;;;27.93;;
17482;SDS011;8858;52.308;20.994;2022-09-30T05:29:00;36.37;;;27.63;;
17482;SDS011;8858;52.308;20.994;2022-09-30T05:31:30;36.00;;;27.13;;
17482;SDS011;8858;52.308;20.994;2022-09-30T05:33:59;34.97;;;27.67;;
17482;SDS011;8858;52.308;20.994;2022-09-30T05:36:28;36.17;;;26.50;;
17482;SDS011;8858;52.308;20.994;2022-09-30T05:38:57;36.30;;;26.43;;
17482;SDS011;8858;52.308;20.994;2022-09-30T05:41:25;35.27;;;26.73;;
17482;SDS011;8858;52.308;20.994;2022-09-30T05:43:53;40.20;;;28.23;;
17482;SDS011;8858;52.308;20.994;2022-09-30T05:46:27;36.87;;;27.63;;
17482;SDS011;8858;52.308;20.994;2022-09-30T05:48:56;38.30;;;27.93;;
17482;SDS011;8858;52.308;20.994;2022-09-30T05:51:28;35.17;;;28.10;;
17482;SDS011;8858;52.308;20.994;2022-09-30T05:53:56;33.70;;;27.70;;
17482;SDS011;8858;52.308;20.994;2022-09-30T05:56:24;41.63;;;27.47;;
17482;SDS011;8858;52.308;20.994;2022-09-30T05:58:54;42.33;;;28.47;;
17482;SDS011;8858;52.308;20.994;2022-09-30T06:01:22;39.87;;;28.30;;
17482;SDS011;8858;52.308;20.994;2022-09-30T06:03:51;39.10;;;27.80;;
17482;SDS011;8858;52.308;20.994;2022-09-30T06:06:21;38.50;;;28.33;;
17482;SDS011;8858;52.308;20.994;2022-09-30T06:08:49;37.07;;;28.30;;
17482;SDS011;8858;52.308;20.994;2022-09-30T06:11:21;38.73;;;28.67;;
17482;SDS011;8858;52.308;20.994;2022-09-30T06:16:47;42.07;;;28.40;;
17482;SDS011;8858;52.308;20.994;2022-09-30T06:19:17;38.40;;;28.03;;
17482;SDS011;8858;52.308;20.994;2022-09-30T06:21:48;44.30;;;28.67;;
17482;SDS011;8858;52.308;20.994;2022-09-30T06:24:17;39.90;;;28.27;;
17482;SDS011;8858;52.308;20.994;2022-09-30T06:26:48;42.97;;;28.10;;
17482;SDS011;8858;52.308;20.994;2022-09-30T06:29:17;48.43;;;30.77;;
17482;SDS011;8858;52.308;20.994;2022-09-30T06:31:49;48.13;;;29.10;;
17482;SDS011;8858;52.308;20.994;2022-09-30T06:34:17;46.43;;;30.33;;
17482;SDS011;8858;52.308;20.994;2022-09-30T06:36:47;47.90;;;31.30;;
17482;SDS011;8858;52.308;20.994;2022-09-30T06:39:49;48.20;;;29.70;;
17482;SDS011;8858;52.308;20.994;2022-09-30T06:42:20;54.17;;;30.97;;
17482;SDS011;8858;52.308;20.994;2022-09-30T06:44:50;47.80;;;30.53;;
17482;SDS011;8858;52.308;20.994;2022-09-30T06:47:25;46.20;;;29.97;;
17482;SDS011;8858;52.308;20.994;2022-09-30T06:49:53;46.10;;;29.77;;
17482;SDS011;8858;52.308;20.994;2022-09-30T06:52:28;47.40;;;29.47;;
17482;SDS011;8858;52.308;20.994;2022-09-30T06:54:56;42.43;;;28.33;;
17482;SDS011;8858;52.308;20.994;2022-09-30T06:57:25;45.17;;;28.50;;
17482;SDS011;8858;52.308;20.994;2022-09-30T06:59:53;48.27;;;28.97;;
17482;SDS011;8858;52.308;20.994;2022-09-30T07:02:26;48.43;;;29.93;;
17482;SDS011;8858;52.308;20.994;2022-09-30T07:05:33;49.97;;;29.33;;
17482;SDS011;8858;52.308;20.994;2022-09-30T07:08:06;52.40;;;29.70;;
17482;SDS011;8858;52.308;20.994;2022-09-30T07:10:36;46.57;;;29.30;;
17482;SDS011;8858;52.308;20.994;2022-09-30T07:13:04;44.87;;;29.90;;
17482;SDS011;8858;52.308;20.994;2022-09-30T07:15:33;52.07;;;31.50;;
17482;SDS011;8858;52.308;20.994;2022-09-30T07:18:02;48.23;;;29.87;;
17482;SDS011;8858;52.308;20.994;2022-09-30T07:20:32;48.43;;;29.40;;
17482;SDS011;8858;52.308;20.994;2022-09-30T07:23:00;41.87;;;28.93;;
17482;SDS011;8858;52.308;20.994;2022-09-30T07:25:30;49.80;;;28.87;;
17482;SDS011;8858;52.308;20.994;2022-09-30T07:27:59;39.23;;;27.40;;
17482;SDS011;8858;52.308;20.994;2022-09-30T07:30:34;40.83;;;28.57;;
17482;SDS011;8858;52.308;20.994;2022-09-30T07:33:06;49.03;;;29.03;;
17482;SDS011;8858;52.308;20.994;2022-09-30T07:35:34;38.70;;;27.93;;
17482;SDS011;8858;52.308;20.994;2022-09-30T07:38:04;39.03;;;26.70;;
17482;SDS011;8858;52.308;20.994;2022-09-30T07:40:34;42.77;;;27.00;;
17482;SDS011;8858;52.308;20.994;2022-09-30T07:46:32;37.53;;;26.17;;
17482;SDS011;8858;52.308;20.994;2022-09-30T07:49:05;35.40;;;26.20;;
17482;SDS011;8858;52.308;20.994;2022-09-30T07:51:37;34.80;;;25.63;;
17482;SDS011;8858;52.308;20.994;2022-09-30T07:54:10;31.80;;;25.37;;
17482;SDS011;8858;52.308;20.994;2022-09-30T07:56:42;30.87;;;24.37;;
17482;SDS011;8858;52.308;20.994;2022-09-30T07:59:35;33.57;;;25.13;;
17482;SDS011;8858;52.308;20.994;2022-09-30T08:02:17;33.57;;;24.73;;
17482;SDS011;8858;52.308;20.994;2022-09-30T08:04:46;30.47;;;24.30;;
17482;SDS011;8858;52.308;20.994;2022-09-30T08:07:17;31.83;;;24.13;;
17482;SDS011;8858;52.308;20.994;2022-09-30T08:09:46;27.90;;;23.87;;
17482;SDS011;8858;52.308;20.994;2022-09-30T08:12:20;29.60;;;24.53;;
17482;SDS011;8858;52.308;20.994;2022-09-30T08:14:48;33.97;;;24.43;;
17482;SDS011;8858;52.308;20.994;2022-09-30T08:17:17;33.77;;;25.53;;
17482;SDS011;8858;52.308;20.994;2022-09-30T08:19:46;28.87;;;24.77;;
17482;SDS011;8858;52.308;20.994;2022-09-30T08:22:15;37.73;;;25.40;;
17482;SDS011;8858;52.308;20.994;2022-09-30T08:24:51;28.10;;;23.93;;
17482;SDS011;8858;52.308;20.994;2022-09-30T08:27:31;28.20;;;22.77;;
17482;SDS011;8858;52.308;20.994;2022-09-30T08:30:25;30.80;;;23.73;;
17482;SDS011;8858;52.308;20.994;2022-09-30T08:32:57;28.50;;;23.37;;
17482;SDS011;8858;52.308;20.994;2022-09-30T08:35:27;31.83;;;25.23;;
17482;SDS011;8858;52.308;20.994;2022-09-30T08:37:58;31.30;;;24.10;;
17482;SDS011;8858;52.308;20.994;2022-09-30T08:40:27;29.03;;;24.03;;
17482;SDS011;8858;52.308;20.994;2022-09-30T08:43:07;28.57;;;24.23;;
17482;SDS011;8858;52.308;20.994;2022-09-30T08:45:54;28.17;;;24.13;;
17482;SDS011;8858;52.308;20.994;2022-09-30T08:48:34;30.60;;;22.90;;
17482;SDS011;8858;52.308;20.994;2022-09-30T08:51:20;30.00;;;23.03;;
17482;SDS011;8858;52.308;20.994;2022-09-30T08:53:57;30.83;;;23.00;;
17482;SDS011;8858;52.308;20.994;2022-09-30T08:56:29;31.60;;;26.23;;
17482;SDS011;8858;52.308;20.994;2022-09-30T08:59:03;28.00;;;23.40;;
17482;SDS011;8858;52.308;20.994;2022-09-30T09:01:34;28.80;;;23.03;;
17482;SDS011;8858;52.308;20.994;2022-09-30T09:04:07;29.37;;;21.97;;
17482;SDS011;8858;52.308;20.994;2022-09-30T09:06:39;30.77;;;22.60;;
17482;SDS011;8858;52.308;20.994;2022-09-30T09:09:26;24.73;;;22.13;;
17482;SDS011;8858;52.308;20.994;2022-09-30T09:12:10;25.60;;;21.23;;
17482;SDS011;8858;52.308;20.994;2022-09-30T09:14:53;29.10;;;21.47;;
17482;SDS011;8858;52.308;20.994;2022-09-30T09:17:44;25.20;;;21.07;;
17482;SDS011;8858;52.308;20.994;2022-09-30T09:20:47;26.97;;;21.67;;
17482;SDS011;8858;52.308;20.994;2022-09-30T09:23:20;25.30;;;21.90;;
17482;SDS011;8858;52.308;20.994;2022-09-30T09:25:49;23.90;;;21.23;;
17482;SDS011;8858;52.308;20.994;2022-09-30T09:28:29;25.00;;;21.67;;
17482;SDS011;8858;52.308;20.994;2022-09-30T09:31:04;23.17;;;20.40;;
17482;SDS011;8858;52.308;20.994;2022-09-30T09:33:33;25.30;;;21.60;;
17482;SDS011;8858;52.308;20.994;2022-09-30T09:36:10;23.27;;;20.47;;
17482;SDS011;8858;52.308;20.994;2022-09-30T09:38:59;32.73;;;20.90;;
17482;SDS011;8858;52.308;20.994;2022-09-30T09:41:39;24.30;;;20.70;;
17482;SDS011;8858;52.308;20.994;2022-09-30T09:44:13;63.70;;;49.13;;
17482;SDS011;8858;52.308;20.994;2022-09-30T09:46:48;27.13;;;23.63;;
17482;SDS011;8858;52.308;20.994;2022-09-30T09:49:31;27.10;;;21.60;;
17482;SDS011;8858;52.308;20.994;2022-09-30T09:55:06;27.23;;;19.00;;
17482;SDS011;8858;52.308;20.994;2022-09-30T09:57:34;25.63;;;19.43;;
17482;SDS011;8858;52.308;20.994;2022-09-30T10:00:20;24.00;;;18.53;;
17482;SDS011;8858;52.308;20.994;2022-09-30T10:03:12;20.93;;;18.20;;
17482;SDS011;8858;52.308;20.994;2022-09-30T10:06:03;22.43;;;18.40;;
17482;SDS011;8858;52.308;20.994;2022-09-30T10:08:51;23.13;;;16.27;;
17482;SDS011;8858;52.308;20.994;2022-09-30T10:11:24;21.50;;;16.10;;
17482;SDS011;8858;52.308;20.994;2022-09-30T10:13:54;21.90;;;16.87;;
17482;SDS011;8858;52.308;20.994;2022-09-30T10:16:49;20.33;;;15.93;;
17482;SDS011;8858;52.308;20.994;2022-09-30T10:19:27;21.30;;;16.43;;
17482;SDS011;8858;52.308;20.994;2022-09-30T10:22:03;19.93;;;15.47;;
17482;SDS011;8858;52.308;20.994;2022-09-30T10:25:16;18.23;;;14.87;;
17482;SDS011;8858;52.308;20.994;2022-09-30T10:27:49;20.47;;;13.87;;
17482;SDS011;8858;52.308;20.994;2022-09-30T10:38:19;15.80;;;13.63;;
17482;SDS011;8858;52.308;20.994;2022-09-30T10:40:48;18.70;;;13.57;;
17482;SDS011;8858;52.308;20.994;2022-09-30T10:43:20;13.83;;;12.47;;
17482;SDS011;8858;52.308;20.994;2022-09-30T10:45:51;15.03;;;12.47;;
17482;SDS011;8858;52.308;20.994;2022-09-30T10:48:43;17.00;;;13.73;;
17482;SDS011;8858;52.308;20.994;2022-09-30T10:51:20;16.93;;;13.07;;
17482;SDS011;8858;52.308;20.994;2022-09-30T10:54:03;15.93;;;11.73;;
17482;SDS011;8858;52.308;20.994;2022-09-30T10:56:33;12.77;;;11.00;;
17482;SDS011;8858;52.308;20.994;2022-09-30T10:59:15;13.77;;;11.10;;
17482;SDS011;8858;52.308;20.994;2022-09-30T11:01:56;11.77;;;10.17;;
17482;SDS011;8858;52.308;20.994;2022-09-30T11:04:33;11.00;;;9.90;;
17482;SDS011;8858;52.308;20.994;2022-09-30T11:07:10;10.57;;;9.50;;
17482;SDS011;8858;52.308;20.994;2022-09-30T11:09:46;11.57;;;9.40;;
17482;SDS011;8858;52.308;20.994;2022-09-30T11:12:25;11.87;;;9.17;;
17482;SDS011;8858;52.308;20.994;2022-09-30T11:15:01;10.10;;;9.10;;
17482;SDS011;8858;52.308;20.994;2022-09-30T11:17:37;10.50;;;9.47;;
17482;SDS011;8858;52.308;20.994;2022-09-30T11:20:14;9.70;;;8.70;;
17482;SDS011;8858;52.308;20.994;2022-09-30T11:22:48;10.27;;;8.17;;
17482;SDS011;8858;52.308;20.994;2022-09-30T11:25:29;10.00;;;8.00;;
17482;SDS011;8858;52.308;20.994;2022-09-30T11:28:10;7.87;;;7.13;;
17482;SDS011;8858;52.308;20.994;2022-09-30T11:31:04;8.73;;;7.93;;
17482;SDS011;8858;52.308;20.994;2022-09-30T11:33:47;10.30;;;7.87;;
17482;SDS011;8858;52.308;20.994;2022-09-30T11:36:28;10.27;;;7.23;;
17482;SDS011;8858;52.308;20.994;2022-09-30T11:42:04;8.00;;;7.20;;
17482;SDS011;8858;52.308;20.994;2022-09-30T11:44:40;8.20;;;7.40;;
17482;SDS011;8858;52.308;20.994;2022-09-30T11:47:19;7.80;;;7.10;;
17482;SDS011;8858;52.308;20.994;2022-09-30T11:50:06;8.37;;;7.13;;
17482;SDS011;8858;52.308;20.994;2022-09-30T11:52:46;9.93;;;7.20;;
17482;SDS011;8858;52.308;20.994;2022-09-30T11:55:31;8.83;;;7.60;;
17482;SDS011;8858;52.308;20.994;2022-09-30T11:58:30;7.67;;;6.97;;
17482;SDS011;8858;52.308;20.994;2022-09-30T12:03:59;8.27;;;6.37;;
17482;SDS011;8858;52.308;20.994;2022-09-30T12:06:32;6.60;;;6.00;;
17482;SDS011;8858;52.308;20.994;2022-09-30T12:09:08;6.03;;;5.43;;
17482;SDS011;8858;52.308;20.994;2022-09-30T12:11:45;7.33;;;5.37;;
17482;SDS011;8858;52.308;20.994;2022-09-30T12:14:21;5.77;;;5.03;;
17482;SDS011;8858;52.308;20.994;2022-09-30T12:16:53;5.17;;;4.67;;
17482;SDS011;8858;52.308;20.994;2022-09-30T12:19:25;5.17;;;4.77;;
17482;SDS011;8858;52.308;20.994;2022-09-30T12:21:59;5.70;;;5.17;;
17482;SDS011;8858;52.308;20.994;2022-09-30T12:24:34;6.13;;;5.53;;
17482;SDS011;8858;52.308;20.994;2022-09-30T12:27:04;13.50;;;5.60;;
17482;SDS011;8858;52.308;20.994;2022-09-30T12:29:41;6.13;;;5.40;;
17482;SDS011;8858;52.308;20.994;2022-09-30T12:32:50;12.73;;;5.80;;
17482;SDS011;8858;52.308;20.994;2022-09-30T12:35:55;6.87;;;5.30;;
17482;SDS011;8858;52.308;20.994;2022-09-30T12:41:47;6.13;;;5.23;;
17482;SDS011;8858;52.308;20.994;2022-09-30T12:44:32;5.80;;;5.17;;
17482;SDS011;8858;52.308;20.994;2022-09-30T12:47:40;6.23;;;5.63;;
17482;SDS011;8858;52.308;20.994;2022-09-30T12:50:14;6.60;;;5.67;;
17482;SDS011;8858;52.308;20.994;2022-09-30T12:52:45;5.67;;;4.50;;
17482;SDS011;8858;52.308;20.994;2022-09-30T12:55:20;5.47;;;4.30;;
17482;SDS011;8858;52.308;20.994;2022-09-30T12:57:53;4.07;;;3.70;;
17482;SDS011;8858;52.308;20.994;2022-09-30T13:00:26;4.37;;;3.83;;
17482;SDS011;8858;52.308;20.994;2022-09-30T13:03:02;4.80;;;4.30;;
17482;SDS011;8858;52.308;20.994;2022-09-30T13:05:46;6.60;;;4.17;;
17482;SDS011;8858;52.308;20.994;2022-09-30T13:08:35;4.83;;;4.43;;
17482;SDS011;8858;52.308;20.994;2022-09-30T13:14:20;4.13;;;3.73;;
17482;SDS011;8858;52.308;20.994;2022-09-30T13:16:58;5.07;;;4.63;;
17482;SDS011;8858;52.308;20.994;2022-09-30T13:19:51;6.60;;;4.40;;
17482;SDS011;8858;52.308;20.994;2022-09-30T13:22:41;5.20;;;4.70;;
17482;SDS011;8858;52.308;20.994;2022-09-30T13:25:10;5.60;;;4.43;;
17482;SDS011;8858;52.308;20.994;2022-09-30T13:27:41;5.10;;;4.43;;
17482;SDS011;8858;52.308;20.994;2022-09-30T13:36:06;4.43;;;4.03;;
17482;SDS011;8858;52.308;20.994;2022-09-30T13:38:42;4.70;;;4.30;;
17482;SDS011;8858;52.308;20.994;2022-09-30T13:41:15;4.50;;;4.10;;
17482;SDS011;8858;52.308;20.994;2022-09-30T13:43:50;5.00;;;4.43;;
17482;SDS011;8858;52.308;20.994;2022-09-30T13:46:29;5.00;;;4.20;;
17482;SDS011;8858;52.308;20.994;2022-09-30T13:49:02;4.83;;;4.43;;
17482;SDS011;8858;52.308;20.994;2022-09-30T13:51:37;5.07;;;4.27;;
17482;SDS011;8858;52.308;20.994;2022-09-30T13:54:09;5.03;;;4.23;;
17482;SDS011;8858;52.308;20.994;2022-09-30T13:56:55;4.93;;;4.30;;
17482;SDS011;8858;52.308;20.994;2022-09-30T13:59:30;4.77;;;4.37;;
17482;SDS011;8858;52.308;20.994;2022-09-30T14:08:13;4.20;;;3.90;;
17482;SDS011;8858;52.308;20.994;2022-09-30T14:11:13;5.63;;;4.30;;
17482;SDS011;8858;52.308;20.994;2022-09-30T14:13:52;5.20;;;4.53;;
17482;SDS011;8858;52.308;20.994;2022-09-30T14:16:39;5.00;;;4.60;;
17482;SDS011;8858;52.308;20.994;2022-09-30T14:19:29;4.20;;;3.90;;
17482;SDS011;8858;52.308;20.994;2022-09-30T14:22:11;4.53;;;4.13;;
17482;SDS011;8858;52.308;20.994;2022-09-30T14:24:46;4.47;;;4.00;;
17482;SDS011;8858;52.308;20.994;2022-09-30T14:27:23;5.10;;;4.60;;
17482;SDS011;8858;52.308;20.994;2022-09-30T14:30:04;5.37;;;4.50;;
17482;SDS011;8858;52.308;20.994;2022-09-30T14:32:38;7.83;;;5.00;;
17482;SDS011;8858;52.308;20.994;2022-09-30T14:35:13;5.33;;;4.80;;
17482;SDS011;8858;52.308;20.994;2022-09-30T14:37:45;11.27;;;10.10;;
17482;SDS011;8858;52.308;20.994;2022-09-30T14:40:19;10.43;;;6.70;;
17482;SDS011;8858;52.308;20.994;2022-09-30T14:42:52;7.17;;;5.30;;
17482;SDS011;8858;52.308;20.994;2022-09-30T14:45:22;5.97;;;5.23;;
17482;SDS011;8858;52.308;20.994;2022-09-30T14:47:54;6.43;;;5.13;;
17482;SDS011;8858;52.308;20.994;2022-09-30T14:50:27;6.67;;;5.10;;
17482;SDS011;8858;52.308;20.994;2022-09-30T14:53:01;6.40;;;4.80;;
17482;SDS011;8858;52.308;20.994;2022-09-30T14:55:31;7.07;;;5.10;;
17482;SDS011;8858;52.308;20.994;2022-09-30T14:58:20;6.70;;;5.13;;
17482;SDS011;8858;52.308;20.994;2022-09-30T15:01:04;4.83;;;4.53;;
17482;SDS011;8858;52.308;20.994;2022-09-30T15:03:34;6.67;;;4.50;;
17482;SDS011;8858;52.308;20.994;2022-09-30T15:06:05;5.60;;;5.00;;
17482;SDS011;8858;52.308;20.994;2022-09-30T15:08:43;9.97;;;5.30;;
17482;SDS011;8858;52.308;20.994;2022-09-30T15:11:17;5.77;;;5.20;;
17482;SDS011;8858;52.308;20.994;2022-09-30T15:13:47;5.00;;;4.50;;
17482;SDS011;8858;52.308;20.994;2022-09-30T15:16:22;6.07;;;5.13;;
17482;SDS011;8858;52.308;20.994;2022-09-30T15:18:51;8.33;;;5.70;;
17482;SDS011;8858;52.308;20.994;2022-09-30T15:21:20;6.23;;;5.43;;
17482;SDS011;8858;52.308;20.994;2022-09-30T15:23:51;5.97;;;5.27;;
17482;SDS011;8858;52.308;20.994;2022-09-30T15:26:31;6.43;;;5.53;;
17482;SDS011;8858;52.308;20.994;2022-09-30T15:29:01;8.30;;;6.00;;
17482;SDS011;8858;52.308;20.994;2022-09-30T15:31:34;7.63;;;6.13;;
17482;SDS011;8858;52.308;20.994;2022-09-30T15:34:15;6.33;;;5.73;;
17482;SDS011;8858;52.308;20.994;2022-09-30T15:36:54;7.87;;;6.27;;
17482;SDS011;8858;52.308;20.994;2022-09-30T15:39:25;8.00;;;6.20;;
17482;SDS011;8858;52.308;20.994;2022-09-30T15:42:28;7.37;;;5.63;;
17482;SDS011;8858;52.308;20.994;2022-09-30T15:45:02;6.33;;;5.80;;
17482;SDS011;8858;52.308;20.994;2022-09-30T15:47:53;6.83;;;5.93;;
17482;SDS011;8858;52.308;20.994;2022-09-30T15:50:34;8.43;;;6.10;;
17482;SDS011;8858;52.308;20.994;2022-09-30T15:53:13;9.27;;;6.13;;
17482;SDS011;8858;52.308;20.994;2022-09-30T15:55:48;7.33;;;6.60;;
17482;SDS011;8858;52.308;20.994;2022-09-30T15:58:31;8.23;;;7.10;;
17482;SDS011;8858;52.308;20.994;2022-09-30T16:01:14;6.73;;;6.13;;
17482;SDS011;8858;52.308;20.994;2022-09-30T16:03:50;8.73;;;6.90;;
17482;SDS011;8858;52.308;20.994;2022-09-30T16:06:25;8.07;;;6.73;;
17482;SDS011;8858;52.308;20.994;2022-09-30T16:08:59;8.37;;;7.17;;
17482;SDS011;8858;52.308;20.994;2022-09-30T16:11:30;9.90;;;6.60;;
17482;SDS011;8858;52.308;20.994;2022-09-30T16:14:06;7.50;;;6.80;;
17482;SDS011;8858;52.308;20.994;2022-09-30T16:16:46;8.70;;;7.03;;
17482;SDS011;8858;52.308;20.994;2022-09-30T16:19:17;8.57;;;7.00;;
17482;SDS011;8858;52.308;20.994;2022-09-30T16:21:46;8.57;;;7.13;;
17482;SDS011;8858;52.308;20.994;2022-09-30T16:30:05;9.63;;;7.10;;
17482;SDS011;8858;52.308;20.994;2022-09-30T16:32:35;7.73;;;6.77;;
17482;SDS011;8858;52.308;20.994;2022-09-30T16:35:13;9.43;;;7.50;;
17482;SDS011;8858;52.308;20.994;2022-09-30T16:37:44;8.07;;;6.60;;
17482;SDS011;8858;52.308;20.994;2022-09-30T16:40:15;8.87;;;7.10;;
17482;SDS011;8858;52.308;20.994;2022-09-30T16:42:46;8.63;;;7.13;;
17482;SDS011;8858;52.308;20.994;2022-09-30T16:45:15;7.63;;;6.90;;
17482;SDS011;8858;52.308;20.994;2022-09-30T16:47:44;8.13;;;6.77;;
17482;SDS011;8858;52.308;20.994;2022-09-30T16:50:27;10.17;;;7.00;;